VTPHVTBD

Guest
Details From VTPH - Hua Hin
To VTBD - Bangkok Don Mueang Intl
Flight Number -
Tags Generated
Created
Modified
Stats Distance 84 nm / 156 km
Max Altitude 0 ft / 0 m
Waypoints 2
Social Downloads 5
Likes 0
Share VATSIM

Download

Looking for another format? Having issues loading an existing format? Contact us
Advertisement - Login to hide

Notes

Generated

Route

VTPH VTBD

ID Type Via Altitude Latitude Longitude Leg Dist Tot Dist Heading (true) Name
O VTPH APT - 0 ft / 0 m 12.64514˚ 99.94817˚ - 0 nm - -
O VTBD APT - 0 ft / 0 m 13.89960˚ 100.60162˚ 84 nm 84 nm 27° / 27° -

Altitude Profile

Advertisement - Login to hide

VTPH

Details ICAO VTPH (HHQ)
Name Hua Hin
Region Thailand
Timezone Asia/Bangkok (UTC+7.0)
Stats Elevation 62 ft / 19 m (AMSL)
Location 12.636225° 99.951530°
Runways 1
Magnetic Variation 0.522° W

METAR

VTPH 130700Z 13006KT 8000 FEW032 31/24 Q1009 NOSIG

Decode

TAF

TAF VTPH 130500Z 1306/1406 16010KT 8000 FEW025 BECMG 1318/1320 00000KT 6000 NSC BECMG 1402/1404 14008KT 8000 FEW030

Decode

Departure Runways

ID Width Length Bearing (true) Bearing (mag) Surface Threshold Offset Overrun Length
16 115 ft / 35 m 6,935 ft / 2,114 m 159.78° 160.30° Asphalt 0 ft / 0 m 197 ft / 60 m
34 115 ft / 35 m 6,935 ft / 2,114 m 339.78° 340.30° Asphalt 492 ft / 150 m 95 ft / 29 m

VTBD

Details ICAO VTBD (DMK)
Name Bangkok Don Mueang Intl
Region Thailand
Timezone Asia/Bangkok (UTC+7.0)
Stats Elevation 9 ft / 3 m (AMSL)
Location 13.912597° 100.606799°
Runways 2
Magnetic Variation 0.582° W

METAR

VTBD 130730Z VRB04KT 9999 SCT030 33/25 Q1008 NOSIG

Decode

TAF

TAF VTBD 130500Z 1306/1412 18005KT 9000 FEW020 BECMG 1320/1322 12005KT 5000 BR FEW015 BECMG 1401/1403 8000 NSW FEW025

Decode

Destination Runways

ID Width Length Bearing (true) Bearing (mag) Surface Threshold Offset Overrun Length
03L 197 ft / 60 m 12,186 ft / 3,714 m 28.55° 29.13° Asphalt 0 ft / 0 m 492 ft / 150 m
03R 148 ft / 45 m 11,520 ft / 3,511 m 28.50° 29.08° Asphalt 0 ft / 0 m 348 ft / 106 m
21L 148 ft / 45 m 11,520 ft / 3,511 m 208.50° 209.08° Asphalt 1,145 ft / 349 m 180 ft / 55 m
21R 197 ft / 60 m 12,186 ft / 3,714 m 208.55° 209.13° Asphalt 0 ft / 0 m 492 ft / 150 m

Approach Navaids

Runway Type Ident Frequency Range Bearing (true) Bearing (mag) Slope Elevation
03L Localiser IBKD 109.70 MHz 18 nm / 33 km 28.52° 29.11° - 6 ft / 2 m (AMSL)
03L Glidescope IBKD 109.70 MHz 10 nm / 19 km 28.55° 29.14° 3.00° 7 ft / 2 m (AMSL)
03L DME IBKD 109.70 MHz 18 nm / 33 km - - - 3 ft / 1 m (AMSL)
21L Localiser IDMG 110.30 MHz 18 nm / 33 km 208.59° 209.18° - 7 ft / 2 m (AMSL)
21L Glidescope IDMG 110.30 MHz 10 nm / 19 km 208.50° 209.08° 3.15° 8 ft / 2 m (AMSL)
21L DME IDMG 110.30 MHz 18 nm / 33 km - - - 9 ft / 3 m (AMSL)
21R Localiser IBKK 109.30 MHz 18 nm / 33 km 208.58° 209.16° - 7 ft / 2 m (AMSL)
21R Glidescope IBKK 109.30 MHz 10 nm / 19 km 208.55° 209.14° 3.00° 7 ft / 2 m (AMSL)

Popular Alternatives